Terminal Aerodrome Forecast
Issued by NWS

Home | Current Version | Previous Version | Text Only | Print | Product List | Glossary On
Versions: 1 2 3 4 5 6 7 8 9 10 11 12 13 14 15 16 17 18 19
000
FTUS46 KMTR 300904 AAA
TAFMRY
TAF AMD
KMRY 300904Z 3009/0106 00000KT P6SM SKC
     FM301100 VRB03KT 5SM BR OVC007
     FM301700 28004KT P6SM FEW008 SCT010
     FM301900 28008KT P6SM SKC
     FM010300 11004KT P6SM SKC=

USA.gov is the U.S. government's official web portal to all federal, state and local government web resources and services.